createdAt,value
2022-08-10T00:01:53.307Z,22.32
2022-08-10T00:04:22.439Z,22.30
2022-08-10T00:06:53.386Z,22.29
2022-08-10T00:09:20.524Z,22.32
2022-08-10T00:11:47.174Z,22.35
2022-08-10T00:14:13.795Z,22.34
2022-08-10T00:16:40.580Z,22.36
2022-08-10T00:19:07.238Z,22.34
2022-08-10T00:21:33.866Z,22.37
2022-08-10T00:24:00.582Z,22.35
2022-08-10T00:26:27.190Z,22.36
2022-08-10T00:29:13.795Z,22.37
2022-08-10T00:31:58.638Z,22.37
2022-08-10T00:34:27.624Z,22.37
2022-08-10T00:36:54.869Z,22.39
2022-08-10T00:39:21.491Z,22.39
2022-08-10T00:42:07.709Z,22.38
2022-08-10T00:44:38.934Z,22.37
2022-08-10T00:47:06.452Z,22.34
2022-08-10T00:49:33.363Z,22.30
2022-08-10T00:52:00.105Z,22.30
2022-08-10T00:54:26.925Z,22.31
2022-08-10T00:57:15.486Z,22.29
2022-08-10T00:59:58.127Z,22.27
2022-08-10T01:02:31.925Z,22.25
2022-08-10T01:05:01.564Z,22.27
2022-08-10T01:08:08.028Z,22.27
2022-08-10T01:11:06.517Z,22.28
2022-08-10T01:13:59.672Z,22.25
2022-08-10T01:16:32.503Z,22.26
2022-08-10T01:19:10.041Z,22.26
2022-08-10T01:22:03.778Z,22.25
2022-08-10T01:24:40.108Z,22.28
2022-08-10T01:27:27.374Z,22.28
2022-08-10T01:29:57.216Z,22.29
2022-08-10T01:32:33.286Z,22.29
2022-08-10T01:35:10.728Z,22.28
2022-08-10T01:37:43.590Z,22.30
2022-08-10T01:40:22.998Z,22.27
2022-08-10T01:42:51.071Z,22.30
2022-08-10T01:45:18.878Z,22.29
2022-08-10T01:48:05.004Z,22.31
2022-08-10T01:50:59.471Z,22.26
2022-08-10T01:53:41.075Z,22.27
2022-08-10T01:56:13.371Z,22.27
2022-08-10T01:58:41.299Z,22.25
2022-08-10T02:01:10.041Z,22.23
2022-08-10T02:04:03.764Z,22.23
2022-08-10T02:06:27.088Z,22.21
2022-08-10T02:09:05.870Z,22.20
2022-08-10T02:12:06.010Z,22.19
2022-08-10T02:14:21.949Z,22.19
2022-08-10T02:16:51.371Z,22.15
2022-08-10T02:19:20.830Z,22.14
2022-08-10T02:22:35.270Z,22.13
2022-08-10T02:24:35.858Z,22.10
2022-08-10T02:27:03.267Z,22.09
2022-08-10T02:29:30.194Z,22.09
2022-08-10T02:31:56.965Z,22.13
2022-08-10T02:34:24.924Z,22.11
2022-08-10T02:36:54.784Z,22.12
2022-08-10T02:39:22.029Z,22.11
2022-08-10T02:45:19.342Z,22.09
2022-08-10T02:45:30.758Z,22.08
2022-08-10T02:48:16.722Z,22.09
2022-08-10T02:50:43.738Z,22.07
2022-08-10T02:53:51.741Z,22.08
2022-08-10T02:56:12.533Z,22.07
2022-08-10T02:58:46.434Z,22.06
2022-08-10T03:01:15.764Z,22.08
2022-08-10T03:03:52.231Z,22.07
2022-08-10T03:06:21.125Z,22.08
2022-08-10T03:08:49.334Z,22.08
2022-08-10T03:12:35.594Z,22.09
2022-08-10T03:14:15.536Z,22.06
2022-08-10T03:16:42.633Z,22.05
2022-08-10T03:20:35.313Z,22.05
2022-08-10T03:21:57.435Z,22.04
2022-08-10T03:24:30.354Z,22.04
2022-08-10T03:27:00.132Z,22.03
2022-08-10T03:29:27.114Z,22.05
2022-08-10T03:31:54.202Z,22.02
2022-08-10T03:34:22.318Z,22.02
2022-08-10T03:37:00.525Z,21.99
2022-08-10T03:39:27.695Z,21.99
2022-08-10T03:41:57.712Z,21.93
2022-08-10T03:44:27.844Z,21.94
2022-08-10T03:46:55.121Z,21.94
2022-08-10T03:49:22.331Z,21.94
2022-08-10T03:51:51.408Z,21.92
2022-08-10T03:54:18.950Z,21.91
2022-08-10T03:56:46.010Z,21.93
2022-08-10T03:59:14.344Z,21.92
2022-08-10T04:02:46.986Z,21.92
2022-08-10T04:04:31.481Z,21.92
2022-08-10T04:06:59.612Z,21.91
2022-08-10T04:09:42.890Z,21.91
2022-08-10T04:12:15.395Z,21.88
2022-08-10T04:14:50.850Z,21.89
2022-08-10T04:18:04.013Z,21.87
2022-08-10T04:20:12.229Z,21.86
2022-08-10T04:22:40.152Z,21.82
2022-08-10T04:25:08.549Z,21.84
2022-08-10T04:27:35.201Z,21.83
2022-08-10T04:30:01.910Z,21.86
2022-08-10T04:32:31.428Z,21.86
2022-08-10T04:34:58.652Z,21.87
2022-08-10T04:37:25.897Z,21.87
2022-08-10T04:39:52.653Z,21.90
2022-08-10T04:42:19.511Z,21.91
2022-08-10T04:44:46.876Z,21.91
2022-08-10T04:47:13.533Z,21.91
2022-08-10T04:49:54.747Z,21.91
2022-08-10T04:52:23.340Z,21.88
2022-08-10T04:54:51.966Z,21.87
2022-08-10T04:57:18.605Z,21.88
2022-08-10T04:59:45.210Z,21.87
2022-08-10T05:02:31.666Z,21.89
2022-08-10T05:04:58.725Z,21.88
2022-08-10T05:07:25.713Z,21.86
2022-08-10T05:10:02.231Z,21.88
2022-08-10T05:12:35.844Z,21.89
2022-08-10T05:15:12.271Z,21.89
2022-08-10T05:17:40.890Z,21.88
2022-08-10T05:20:27.603Z,21.88
2022-08-10T05:22:54.248Z,21.88
2022-08-10T05:25:21.044Z,21.90
2022-08-10T05:27:48.158Z,21.90
2022-08-10T05:30:20.032Z,21.93
2022-08-10T05:32:57.678Z,21.92
2022-08-10T05:35:27.515Z,21.94
2022-08-10T05:38:11.510Z,21.95
2022-08-10T05:40:46.224Z,21.94
2022-08-10T05:43:16.907Z,21.95
2022-08-10T05:46:16.706Z,21.95
2022-08-10T05:48:57.767Z,21.94
2022-08-10T05:51:19.671Z,21.92
2022-08-10T05:54:03.317Z,21.93
2022-08-10T05:56:53.391Z,21.90
2022-08-10T06:00:35.037Z,21.93
2022-08-10T06:02:31.177Z,21.93
2022-08-10T06:05:00.980Z,21.94
2022-08-10T06:07:28.871Z,21.96
2022-08-10T06:09:59.125Z,21.99
2022-08-10T06:12:30.303Z,21.99
2022-08-10T06:15:05.278Z,22.04
2022-08-10T06:17:33.165Z,22.06
2022-08-10T06:20:00.651Z,22.07
2022-08-10T06:22:28.051Z,22.09
2022-08-10T06:25:27.040Z,22.09
2022-08-10T06:27:44.063Z,22.08
2022-08-10T06:30:19.830Z,22.07
2022-08-10T06:32:49.398Z,22.10
2022-08-10T06:35:16.778Z,22.12
2022-08-10T06:37:44.105Z,22.15
2022-08-10T06:40:18.333Z,22.17
2022-08-10T06:42:47.811Z,22.19
2022-08-10T06:45:21.157Z,22.19
2022-08-10T06:47:50.827Z,22.17
2022-08-10T06:50:34.782Z,22.16
2022-08-10T06:53:12.913Z,22.18
2022-08-10T06:55:55.130Z,22.17
2022-08-10T06:58:26.858Z,22.17
2022-08-10T07:00:55.622Z,22.19
2022-08-10T07:03:26.830Z,22.18
2022-08-10T07:05:54.592Z,22.18
2022-08-10T07:08:21.987Z,22.22
2022-08-10T07:10:49.172Z,22.23
2022-08-10T07:14:16.997Z,22.25
2022-08-10T07:16:04.574Z,22.28
2022-08-10T07:18:31.978Z,22.29
2022-08-10T07:20:59.132Z,22.31
2022-08-10T07:23:58.155Z,22.31
2022-08-10T07:26:15.519Z,22.35
2022-08-10T07:28:47.514Z,22.38
2022-08-10T07:31:36.020Z,22.39
2022-08-10T07:34:06.574Z,22.41
2022-08-10T07:36:33.791Z,22.42
2022-08-10T07:39:00.843Z,22.46
2022-08-10T07:41:30.683Z,22.50
2022-08-10T07:43:58.543Z,22.53
2022-08-10T07:46:26.709Z,22.55
2022-08-10T07:49:24.123Z,22.57
2022-08-10T07:51:54.497Z,22.58
2022-08-10T07:54:23.340Z,22.60
2022-08-10T07:56:52.216Z,22.60
2022-08-10T07:59:23.748Z,22.62
2022-08-10T08:01:52.353Z,22.64
2022-08-10T08:04:21.126Z,22.64
2022-08-10T08:06:48.990Z,22.63
2022-08-10T08:09:15.864Z,22.65
2022-08-10T08:11:44.090Z,22.66
2022-08-10T08:14:11.565Z,22.65
2022-08-10T08:16:42.034Z,22.65
2022-08-10T08:19:26.817Z,22.68
2022-08-10T08:24:09.712Z,22.69
2022-08-10T08:24:42.777Z,22.69
2022-08-10T08:27:11.587Z,22.71
2022-08-10T08:29:41.383Z,22.71
2022-08-10T08:32:08.645Z,22.72
2022-08-10T08:34:38.998Z,22.72
2022-08-10T08:37:07.889Z,22.74
2022-08-10T08:39:36.917Z,22.74
2022-08-10T08:42:15.706Z,22.74
2022-08-10T08:45:01.184Z,22.75
2022-08-10T08:48:03.352Z,22.75
2022-08-10T08:50:37.456Z,22.74
2022-08-10T08:54:03.054Z,22.75
2022-08-10T08:56:50.590Z,22.74
2022-08-10T08:59:23.388Z,22.77
2022-08-10T09:02:27.904Z,22.76
2022-08-10T09:05:07.311Z,22.92
2022-08-10T09:08:03.253Z,22.93
2022-08-10T09:10:50.655Z,22.96
2022-08-10T09:13:27.148Z,22.97
2022-08-10T09:16:08.955Z,23.00
2022-08-10T09:18:44.336Z,23.01
2022-08-10T09:21:20.082Z,23.02
2022-08-10T09:24:11.065Z,23.03
2022-08-10T09:26:40.651Z,23.07
2022-08-10T09:29:13.295Z,23.06
2022-08-10T09:33:05.260Z,23.07
2022-08-10T09:36:19.321Z,23.08
2022-08-10T09:38:03.866Z,23.11
2022-08-10T09:40:59.562Z,23.13
2022-08-10T09:43:31.965Z,23.12
2022-08-10T09:46:11.059Z,23.14
2022-08-10T09:48:54.763Z,23.17
2022-08-10T09:51:46.997Z,23.15
2022-08-10T09:54:17.634Z,23.17
2022-08-10T09:56:59.825Z,23.20
2022-08-10T10:00:21.695Z,23.23
2022-08-10T10:02:57.405Z,23.22
2022-08-10T10:06:01.436Z,23.24
2022-08-10T10:08:53.692Z,23.24
2022-08-10T10:11:46.562Z,23.26
2022-08-10T10:14:22.498Z,23.29
2022-08-10T10:17:16.605Z,23.30
2022-08-10T10:19:59.272Z,23.32
2022-08-10T10:22:45.137Z,23.34
2022-08-10T10:25:24.200Z,23.37
2022-08-10T10:28:57.576Z,23.37
2022-08-10T10:31:25.259Z,23.43
2022-08-10T10:34:00.389Z,23.44
2022-08-10T10:36:27.788Z,23.46
2022-08-10T10:38:55.985Z,23.46
2022-08-10T10:41:28.649Z,23.53
2022-08-10T10:43:58.003Z,23.53
2022-08-10T10:46:51.523Z,23.53
2022-08-10T10:49:39.940Z,23.50
2022-08-10T10:52:17.137Z,23.50
2022-08-10T10:55:10.164Z,23.50
2022-08-10T10:58:00.526Z,23.52
2022-08-10T11:00:42.685Z,23.54
2022-08-10T11:03:27.968Z,23.53
2022-08-10T11:06:40.165Z,23.55
2022-08-10T11:10:05.527Z,23.57
2022-08-10T11:12:07.131Z,23.58
2022-08-10T11:14:46.173Z,23.58
2022-08-10T11:17:34.881Z,23.60
2022-08-10T11:21:01.374Z,23.63
2022-08-10T11:23:45.548Z,23.62
2022-08-10T11:27:07.698Z,23.64
2022-08-10T11:29:43.884Z,23.61
2022-08-10T11:33:00.959Z,23.52
2022-08-10T11:35:44.194Z,23.54
2022-08-10T11:38:43.029Z,23.57
2022-08-10T11:42:12.498Z,23.62
2022-08-10T11:44:48.504Z,23.64
2022-08-10T11:47:34.283Z,23.66
2022-08-10T11:50:07.524Z,23.68
2022-08-10T11:52:54.038Z,23.70
2022-08-10T11:55:21.603Z,23.72
2022-08-10T11:57:54.859Z,23.73
2022-08-10T12:00:23.738Z,23.77
2022-08-10T12:02:57.678Z,23.78
2022-08-10T12:05:52.593Z,23.78
2022-08-10T12:10:07.642Z,23.80
2022-08-10T12:11:06.476Z,23.84
2022-08-10T12:14:19.647Z,23.85
2022-08-10T12:16:48.457Z,23.86
2022-08-10T12:19:28.859Z,23.86
2022-08-10T12:22:06.052Z,23.91
2022-08-10T12:24:57.102Z,23.90
2022-08-10T12:27:39.616Z,23.93
2022-08-10T12:30:11.751Z,23.95
2022-08-10T12:33:02.278Z,23.97
2022-08-10T12:35:56.075Z,23.99
2022-08-10T12:38:44.800Z,24.02
2022-08-10T12:41:25.390Z,24.03
2022-08-10T12:44:35.741Z,24.03
2022-08-10T12:47:17.342Z,24.04
2022-08-10T12:50:29.729Z,24.08
2022-08-10T12:53:26.343Z,24.10
2022-08-10T12:55:53.766Z,24.13
2022-08-10T12:58:59.720Z,24.09
2022-08-10T13:01:17.768Z,24.09
2022-08-10T13:04:20.930Z,24.11
2022-08-10T13:06:41.797Z,24.13
2022-08-10T13:09:09.339Z,24.16
2022-08-10T13:12:38.398Z,24.17
2022-08-10T13:14:54.075Z,24.21
2022-08-10T13:17:38.972Z,24.24
2022-08-10T13:20:16.715Z,24.26
2022-08-10T13:22:44.464Z,24.29
2022-08-10T13:25:11.584Z,24.26
2022-08-10T13:28:02.718Z,24.32
2022-08-10T13:30:35.722Z,24.34
2022-08-10T13:33:05.653Z,24.30
2022-08-10T13:35:32.892Z,24.30
2022-08-10T13:38:01.882Z,24.30
2022-08-10T13:40:29.189Z,24.42
2022-08-10T13:42:58.551Z,24.43
2022-08-10T13:45:26.926Z,24.39
2022-08-10T13:48:09.806Z,24.44
2022-08-10T13:50:37.779Z,24.46
2022-08-10T13:53:14.978Z,24.48
2022-08-10T13:55:56.103Z,24.48
2022-08-10T13:58:31.735Z,24.42
2022-08-10T14:03:27.703Z,24.22
2022-08-10T14:05:59.681Z,24.26
2022-08-10T14:08:31.770Z,24.37
2022-08-10T14:11:11.586Z,24.42
2022-08-10T14:14:06.294Z,24.42
2022-08-10T14:16:33.647Z,24.47
2022-08-10T14:19:11.883Z,24.51
2022-08-10T14:21:42.189Z,24.50
2022-08-10T14:24:26.609Z,24.51
2022-08-10T14:27:24.936Z,24.51
2022-08-10T14:30:14.634Z,24.53
2022-08-10T14:32:47.138Z,24.58
2022-08-10T14:36:23.847Z,24.59
2022-08-10T14:38:10.705Z,24.58
2022-08-10T14:40:43.944Z,24.62
2022-08-10T14:43:28.649Z,24.66
2022-08-10T14:46:04.050Z,24.78
2022-08-10T14:48:34.739Z,25.02
2022-08-10T14:51:05.744Z,25.23
2022-08-10T14:53:36.018Z,25.06
2022-08-10T14:56:06.345Z,24.84
2022-08-10T14:58:38.691Z,24.74
2022-08-10T15:01:06.877Z,24.69
2022-08-10T15:04:02.302Z,24.68
2022-08-10T15:06:30.602Z,25.14
2022-08-10T15:09:19.633Z,25.65
2022-08-10T15:12:14.079Z,25.74
2022-08-10T15:14:43.222Z,25.47
2022-08-10T15:17:13.548Z,25.21
2022-08-10T15:20:02.601Z,25.01
2022-08-10T15:22:38.360Z,24.94
2022-08-10T15:25:17.780Z,24.88
2022-08-10T15:27:53.586Z,24.80
2022-08-10T15:30:30.092Z,24.75
2022-08-10T15:33:21.384Z,24.70
2022-08-10T15:36:24.349Z,24.66
2022-08-10T15:38:59.748Z,24.61
2022-08-10T15:41:57.871Z,24.59
2022-08-10T15:44:42.210Z,24.58
2022-08-10T15:47:23.203Z,24.56
2022-08-10T15:49:52.899Z,24.59
2022-08-10T15:52:40.163Z,24.60
2022-08-10T15:55:44.001Z,24.57
2022-08-10T15:58:08.240Z,24.58
2022-08-10T16:00:38.762Z,24.64
2022-08-10T16:03:16.107Z,24.62
2022-08-10T16:06:02.183Z,24.62
2022-08-10T16:08:56.229Z,24.61
2022-08-10T16:11:37.566Z,24.59
2022-08-10T16:14:19.473Z,24.55
2022-08-10T16:16:50.229Z,24.59
2022-08-10T16:19:23.798Z,24.58
2022-08-10T16:22:01.803Z,24.58
2022-08-10T16:24:34.284Z,24.63
2022-08-10T16:27:04.876Z,24.55
2022-08-10T16:29:32.570Z,24.56
2022-08-10T16:32:22.413Z,24.49
2022-08-10T16:34:50.821Z,24.43
2022-08-10T16:37:18.884Z,24.36
2022-08-10T16:39:59.930Z,24.33
2022-08-10T16:42:31.637Z,24.33
2022-08-10T16:45:01.883Z,24.31
2022-08-10T16:47:29.437Z,24.30
2022-08-10T16:49:59.862Z,24.27
2022-08-10T16:52:29.157Z,24.26
2022-08-10T16:55:24.533Z,24.25
2022-08-10T16:58:08.766Z,24.25
2022-08-10T17:00:35.614Z,24.24
2022-08-10T17:04:04.838Z,24.23
2022-08-10T17:06:03.561Z,24.24
2022-08-10T17:08:48.197Z,24.24
2022-08-10T17:11:17.545Z,24.24
2022-08-10T17:13:44.334Z,24.24
2022-08-10T17:16:12.480Z,24.24
2022-08-10T17:18:41.374Z,24.22
2022-08-10T17:21:23.528Z,24.21
2022-08-10T17:23:52.648Z,24.20
2022-08-10T17:26:27.004Z,24.19
2022-08-10T17:29:53.569Z,24.18
2022-08-10T17:32:06.941Z,24.17
2022-08-10T17:34:37.076Z,24.15
2022-08-10T17:37:06.064Z,24.15
2022-08-10T17:39:41.097Z,24.14
2022-08-10T17:42:08.159Z,24.13
2022-08-10T17:44:38.938Z,24.14
2022-08-10T17:47:10.659Z,24.13
2022-08-10T17:49:38.722Z,24.10
2022-08-10T17:52:07.983Z,24.11
2022-08-10T17:54:44.347Z,24.09
2022-08-10T17:57:21.230Z,24.08
2022-08-10T17:59:51.136Z,24.08
2022-08-10T18:02:21.658Z,24.08
2022-08-10T18:04:58.192Z,24.07
2022-08-10T18:07:38.806Z,24.08
2022-08-10T18:10:08.882Z,24.05
2022-08-10T18:12:47.900Z,24.06
2022-08-10T18:15:19.267Z,24.06
2022-08-10T18:17:58.328Z,24.05
2022-08-10T18:20:32.584Z,24.08
2022-08-10T18:22:59.662Z,24.08
2022-08-10T18:25:30.138Z,24.10
2022-08-10T18:28:01.605Z,24.13
2022-08-10T18:30:36.427Z,24.13
2022-08-10T18:33:05.183Z,24.10
2022-08-10T18:35:34.581Z,24.10
2022-08-10T18:38:02.725Z,24.09
2022-08-10T18:40:35.578Z,24.08
2022-08-10T18:43:08.557Z,24.07
2022-08-10T18:45:53.115Z,24.05
2022-08-10T18:48:21.595Z,24.03
2022-08-10T18:50:53.552Z,23.99
2022-08-10T18:53:28.673Z,23.93
2022-08-10T18:56:09.615Z,23.86
2022-08-10T18:59:03.081Z,23.88
2022-08-10T19:01:42.076Z,23.88
2022-08-10T19:04:27.715Z,23.86
2022-08-10T19:07:03.107Z,23.79
2022-08-10T19:09:55.696Z,23.75
2022-08-10T19:12:55.765Z,23.70
2022-08-10T19:15:35.970Z,23.69
2022-08-10T19:18:11.957Z,23.68
2022-08-10T19:20:50.461Z,23.67
2022-08-10T19:23:55.835Z,23.59
2022-08-10T19:26:46.780Z,23.58
2022-08-10T19:30:04.984Z,23.51
2022-08-10T19:32:31.874Z,23.48
2022-08-10T19:35:04.720Z,23.46
2022-08-10T19:38:17.041Z,23.43
2022-08-10T19:41:09.058Z,23.45
2022-08-10T19:44:01.357Z,23.41
2022-08-10T19:46:41.910Z,23.45
2022-08-10T19:49:32.730Z,23.46
2022-08-10T19:52:40.062Z,23.45
2022-08-10T19:55:39.010Z,23.39
2022-08-10T19:58:40.851Z,23.34
2022-08-10T20:01:07.896Z,23.33
2022-08-10T20:03:55.683Z,23.36
2022-08-10T20:06:36.743Z,23.37
2022-08-10T20:09:29.394Z,23.36
2022-08-10T20:12:13.357Z,23.33
2022-08-10T20:14:49.930Z,23.29
2022-08-10T20:17:45.117Z,23.26
2022-08-10T20:20:31.377Z,23.20
2022-08-10T20:23:17.872Z,23.18
2022-08-10T20:25:49.203Z,23.16
2022-08-10T20:28:34.432Z,23.22
2022-08-10T20:31:17.076Z,23.31
2022-08-10T20:34:01.297Z,23.32
2022-08-10T20:36:32.076Z,23.32
2022-08-10T20:39:36.097Z,23.24
2022-08-10T20:42:19.214Z,23.22
2022-08-10T20:45:10.470Z,23.19
2022-08-10T20:47:55.311Z,23.22
2022-08-10T20:50:42.282Z,23.11
2022-08-10T20:53:12.720Z,23.09
2022-08-10T20:56:10.794Z,23.09
2022-08-10T20:59:08.862Z,23.12
2022-08-10T21:02:06.280Z,23.18
2022-08-10T21:05:02.699Z,23.19
2022-08-10T21:08:01.608Z,23.20
2022-08-10T21:10:56.734Z,23.15
2022-08-10T21:13:46.245Z,22.98
2022-08-10T21:16:37.497Z,22.87
2022-08-10T21:19:23.490Z,22.86
2022-08-10T21:22:08.697Z,22.97
2022-08-10T21:24:41.615Z,22.96
2022-08-10T21:27:33.332Z,22.95
2022-08-10T21:30:20.536Z,22.88
2022-08-10T21:33:07.306Z,22.87
2022-08-10T21:35:46.359Z,22.93
2022-08-10T21:38:28.685Z,22.95
2022-08-10T21:41:56.432Z,22.97
2022-08-10T21:45:08.821Z,22.83
2022-08-10T21:48:19.114Z,22.85
2022-08-10T21:51:24.627Z,22.79
2022-08-10T21:54:31.172Z,22.77
2022-08-10T21:57:29.063Z,22.88
2022-08-10T22:00:31.585Z,22.88
2022-08-10T22:03:17.892Z,22.81
2022-08-10T22:06:08.019Z,22.82
2022-08-10T22:09:06.904Z,22.85
2022-08-10T22:12:00.401Z,22.85
2022-08-10T22:14:53.238Z,22.81
2022-08-10T22:17:59.326Z,22.81
2022-08-10T22:20:56.025Z,22.79
2022-08-10T22:23:41.350Z,22.71
2022-08-10T22:26:44.707Z,22.75
2022-08-10T22:30:00.188Z,22.79
2022-08-10T22:33:24.369Z,22.73
2022-08-10T22:36:40.078Z,22.68
2022-08-10T22:40:10.158Z,22.64
2022-08-10T22:43:10.050Z,22.62
2022-08-10T22:46:02.667Z,22.58
2022-08-10T22:48:47.983Z,22.52
2022-08-10T22:51:21.462Z,22.52
2022-08-10T22:54:30.393Z,22.53
2022-08-10T22:57:24.979Z,22.58
2022-08-10T22:59:51.872Z,22.55
2022-08-10T23:02:38.868Z,22.64
2022-08-10T23:05:13.250Z,22.70
2022-08-10T23:07:49.544Z,22.63
2022-08-10T23:10:18.962Z,22.60
2022-08-10T23:12:58.179Z,22.54
2022-08-10T23:15:47.446Z,22.42
2022-08-10T23:18:37.619Z,22.28
2022-08-10T23:21:05.165Z,22.30
2022-08-10T23:23:38.976Z,22.42
2022-08-10T23:26:06.982Z,22.36
2022-08-10T23:28:39.343Z,22.31
2022-08-10T23:31:59.134Z,22.35
2022-08-10T23:34:13.158Z,22.53
2022-08-10T23:36:42.210Z,22.50
2022-08-10T23:39:25.244Z,22.37
2022-08-10T23:41:58.292Z,22.41
2022-08-10T23:44:33.610Z,22.34
2022-08-10T23:47:01.676Z,22.29
2022-08-10T23:49:34.150Z,22.35
2022-08-10T23:52:01.295Z,22.39
2022-08-10T23:54:28.290Z,22.33
2022-08-10T23:57:00.926Z,22.32
2022-08-10T23:59:31.777Z,22.42
